createdAt,value
2023-02-16T00:00:41.406Z,32.20
2023-02-16T00:03:14.432Z,26.10
2023-02-16T00:05:42.929Z,24.40
2023-02-16T00:08:11.584Z,21.90
2023-02-16T00:10:40.249Z,17.70
2023-02-16T00:13:47.914Z,20.40
2023-02-16T00:16:24.670Z,14.80
2023-02-16T00:18:53.393Z,22.50
2023-02-16T00:21:21.869Z,19.30
2023-02-16T00:23:50.538Z,20.10
2023-02-16T00:26:25.016Z,16.90
2023-02-16T00:28:54.494Z,24.40
2023-02-16T00:31:24.713Z,19.40
2023-02-16T00:33:53.305Z,16.20
2023-02-16T00:36:21.847Z,23.80
2023-02-16T00:38:52.483Z,19.40
2023-02-16T00:41:43.210Z,25.80
2023-02-16T00:44:46.309Z,25.50
2023-02-16T00:47:22.058Z,30.70
2023-02-16T00:49:52.348Z,28.80
2023-02-16T00:52:38.537Z,29.10
2023-02-16T00:55:09.380Z,32.30
2023-02-16T00:57:48.991Z,26.20
2023-02-16T01:00:27.180Z,30.10
2023-02-16T01:02:59.944Z,30.80
2023-02-16T01:05:29.203Z,47.40
2023-02-16T01:08:19.549Z,36.70
2023-02-16T01:11:11.238Z,33.80
2023-02-16T01:13:49.564Z,41.60
2023-02-16T01:16:20.482Z,45.10
2023-02-16T01:18:49.357Z,47.10
2023-02-16T01:21:18.557Z,44.70
2023-02-16T01:23:47.219Z,46.30
2023-02-16T01:26:17.704Z,53.50
2023-02-16T01:28:48.288Z,46.10
2023-02-16T01:31:18.149Z,40.90
2023-02-16T01:33:46.663Z,32.90
2023-02-16T01:36:37.048Z,37.30
2023-02-16T01:39:14.233Z,35.60
2023-02-16T01:44:21.518Z,43.30
2023-02-16T01:49:27.303Z,38.20
2023-02-16T01:52:20.645Z,41.00
2023-02-16T01:54:56.260Z,41.80
2023-02-16T01:57:36.954Z,44.20
2023-02-16T02:00:09.067Z,41.90
2023-02-16T02:03:16.661Z,34.60
2023-02-16T02:05:45.098Z,30.70
2023-02-16T02:08:54.058Z,27.90
2023-02-16T02:11:47.347Z,28.10
2023-02-16T02:14:20.249Z,44.80
2023-02-16T02:16:55.834Z,48.80
2023-02-16T02:19:24.725Z,57.30
2023-02-16T02:22:50.318Z,58.60
2023-02-16T02:28:10.568Z,43.30
2023-02-16T02:31:01.480Z,36.90
2023-02-16T02:34:08.020Z,39.70
2023-02-16T02:36:43.796Z,38.60
2023-02-16T02:39:51.246Z,35.00
2023-02-16T02:42:32.257Z,38.90
2023-02-16T02:45:14.209Z,37.80
2023-02-16T02:47:45.012Z,27.80
2023-02-16T02:51:20.569Z,32.50
2023-02-16T02:54:11.864Z,27.40
2023-02-16T02:57:14.245Z,25.90
2023-02-16T03:00:04.658Z,42.20
2023-02-16T03:02:33.800Z,51.30
2023-02-16T03:05:03.028Z,55.10
2023-02-16T03:07:46.957Z,69.90
2023-02-16T03:13:03.032Z,72.40
2023-02-16T03:15:34.361Z,59.50
2023-02-16T03:18:21.547Z,63.40
2023-02-16T03:21:08.485Z,73.90
2023-02-16T03:23:55.765Z,105.90
2023-02-16T03:26:42.727Z,145.70
2023-02-16T03:29:38.355Z,156.80
2023-02-16T03:32:06.993Z,165.10
2023-02-16T03:34:36.087Z,159.30
2023-02-16T03:37:05.392Z,161.90
2023-02-16T03:39:57.052Z,172.60
2023-02-16T03:42:25.461Z,162.10
2023-02-16T03:44:58.124Z,159.90
2023-02-16T03:47:26.878Z,173.30
2023-02-16T03:49:55.284Z,142.80
2023-02-16T03:52:23.789Z,129.90
2023-02-16T03:54:52.230Z,165.10
2023-02-16T03:57:21.124Z,218.90
2023-02-16T03:59:51.076Z,238.60
2023-02-16T04:02:19.525Z,261.60
2023-02-16T04:04:49.391Z,239.40
2023-02-16T04:07:17.783Z,236.40
2023-02-16T04:09:46.205Z,209.60
2023-02-16T04:12:33.980Z,198.60
2023-02-16T04:15:29.620Z,217.00
2023-02-16T04:18:00.761Z,184.10
2023-02-16T04:20:31.401Z,142.10
2023-02-16T04:23:00.984Z,124.60
2023-02-16T04:25:29.905Z,124.40
2023-02-16T04:27:58.518Z,114.80
2023-02-16T04:30:29.477Z,101.10
2023-02-16T04:32:59.603Z,98.40
2023-02-16T04:35:28.602Z,81.60
2023-02-16T04:37:57.547Z,70.30
2023-02-16T04:40:26.142Z,75.20
2023-02-16T04:42:54.705Z,69.90
2023-02-16T04:45:23.566Z,62.00
2023-02-16T04:47:52.126Z,57.50
2023-02-16T04:50:20.799Z,45.40
2023-02-16T04:52:49.176Z,51.70
2023-02-16T04:55:18.135Z,44.20
2023-02-16T04:57:46.865Z,39.50
2023-02-16T05:00:16.194Z,45.40
2023-02-16T05:02:45.003Z,33.50
2023-02-16T05:05:13.560Z,32.00
2023-02-16T05:07:43.762Z,34.30
2023-02-16T05:10:15.533Z,26.30
2023-02-16T05:13:02.500Z,29.70
2023-02-16T05:15:31.721Z,30.00
2023-02-16T05:18:00.233Z,24.90
2023-02-16T05:20:47.442Z,25.40
2023-02-16T05:23:15.782Z,29.10
2023-02-16T05:25:44.183Z,25.80
2023-02-16T05:28:12.914Z,25.90
2023-02-16T05:30:41.708Z,28.30
2023-02-16T05:33:11.609Z,45.50
2023-02-16T05:35:40.155Z,33.20
2023-02-16T05:38:09.686Z,41.00
2023-02-16T05:40:38.107Z,36.80
2023-02-16T05:43:08.026Z,37.10
2023-02-16T05:45:38.863Z,33.10
2023-02-16T05:48:07.872Z,40.90
2023-02-16T05:50:37.151Z,36.60
2023-02-16T05:53:06.970Z,30.00
2023-02-16T05:55:36.217Z,33.70
2023-02-16T05:58:05.484Z,31.30
2023-02-16T06:00:36.158Z,35.80
2023-02-16T06:03:06.331Z,29.80
2023-02-16T06:05:35.577Z,32.80
2023-02-16T06:08:05.859Z,26.20
2023-02-16T06:10:38.469Z,17.50
2023-02-16T06:13:10.882Z,19.60
2023-02-16T06:15:39.483Z,18.60
2023-02-16T06:18:08.014Z,21.40
2023-02-16T06:20:38.366Z,27.30
2023-02-16T06:23:07.995Z,26.80
2023-02-16T06:25:37.749Z,26.70
2023-02-16T06:28:06.871Z,28.30
2023-02-16T06:30:36.701Z,36.40
2023-02-16T06:33:05.636Z,29.70
2023-02-16T06:35:34.388Z,39.90
2023-02-16T06:38:03.066Z,27.50
2023-02-16T06:40:31.814Z,25.40
2023-02-16T06:43:00.492Z,36.70
2023-02-16T06:45:29.381Z,36.30
2023-02-16T06:47:58.012Z,35.60
2023-02-16T06:50:26.729Z,32.20
2023-02-16T06:52:55.493Z,32.30
2023-02-16T06:55:24.234Z,28.30
2023-02-16T06:57:52.637Z,41.30
2023-02-16T07:00:21.314Z,40.60
2023-02-16T07:02:52.028Z,26.60
2023-02-16T07:05:20.403Z,26.40
2023-02-16T07:07:48.892Z,26.30
2023-02-16T07:10:17.546Z,29.20
2023-02-16T07:12:46.838Z,21.30
2023-02-16T07:15:16.272Z,25.70
2023-02-16T07:17:45.187Z,25.70
2023-02-16T07:20:18.971Z,32.20
2023-02-16T07:22:47.409Z,27.80
2023-02-16T07:25:16.096Z,24.20
2023-02-16T07:27:45.363Z,20.40
2023-02-16T07:30:16.776Z,26.90
2023-02-16T07:32:45.623Z,19.60
2023-02-16T07:35:14.358Z,21.00
2023-02-16T07:37:43.094Z,24.30
2023-02-16T07:40:12.440Z,19.00
2023-02-16T07:42:41.035Z,17.40
2023-02-16T07:45:11.326Z,18.80
2023-02-16T07:47:39.621Z,18.70
2023-02-16T07:50:08.458Z,21.30
2023-02-16T07:52:37.030Z,18.60
2023-02-16T07:55:06.038Z,16.80
2023-02-16T07:57:35.757Z,16.60
2023-02-16T08:00:07.907Z,15.30
2023-02-16T08:02:43.081Z,17.90
2023-02-16T08:05:11.553Z,18.30
2023-02-16T08:07:42.099Z,14.50
2023-02-16T08:10:11.373Z,15.10
2023-02-16T08:12:41.865Z,21.50
2023-02-16T08:15:10.471Z,15.60
2023-02-16T08:17:40.901Z,14.80
2023-02-16T08:20:10.098Z,11.90
2023-02-16T08:22:39.007Z,13.80
2023-02-16T08:25:08.065Z,13.40
2023-02-16T08:27:36.639Z,15.40
2023-02-16T08:30:12.893Z,15.60
2023-02-16T08:32:41.592Z,20.40
2023-02-16T08:35:11.227Z,13.10
2023-02-16T08:37:41.714Z,19.20
2023-02-16T08:40:10.535Z,14.20
2023-02-16T08:42:39.257Z,15.90
2023-02-16T08:45:07.880Z,15.70
2023-02-16T08:47:36.843Z,17.70
2023-02-16T08:50:05.825Z,18.40
2023-02-16T08:52:34.294Z,16.90
2023-02-16T08:55:04.209Z,15.00
2023-02-16T08:57:36.043Z,12.50
2023-02-16T09:00:24.417Z,9.90
2023-02-16T09:02:52.783Z,15.70
2023-02-16T09:05:21.162Z,21.60
2023-02-16T09:07:52.065Z,16.70
2023-02-16T09:10:23.150Z,14.90
2023-02-16T09:12:52.289Z,11.10
2023-02-16T09:15:21.170Z,20.50
2023-02-16T09:17:50.005Z,25.90
2023-02-16T09:20:20.619Z,29.00
2023-02-16T09:22:49.053Z,24.50
2023-02-16T09:25:17.520Z,20.10
2023-02-16T09:27:46.071Z,10.40
2023-02-16T09:30:15.708Z,12.20
2023-02-16T09:32:45.767Z,17.50
2023-02-16T09:35:16.377Z,11.10
2023-02-16T09:37:44.757Z,10.00
2023-02-16T09:40:14.085Z,10.00
2023-02-16T09:43:31.308Z,7.50
2023-02-16T09:46:00.548Z,9.80
2023-02-16T09:48:36.436Z,14.60
2023-02-16T09:51:05.784Z,12.80
2023-02-16T09:53:37.431Z,9.70
2023-02-16T09:56:14.151Z,17.50
2023-02-16T09:58:48.550Z,13.90
2023-02-16T10:02:21.651Z,10.00
2023-02-16T10:05:17.673Z,8.50
2023-02-16T10:08:06.210Z,16.00
2023-02-16T10:10:50.222Z,12.10
2023-02-16T10:13:36.127Z,13.40
2023-02-16T10:16:05.277Z,13.30
2023-02-16T10:18:35.735Z,9.70
2023-02-16T10:21:06.988Z,15.00
2023-02-16T10:23:56.821Z,15.40
2023-02-16T10:26:30.600Z,16.90
2023-02-16T10:29:00.744Z,13.20
2023-02-16T10:31:30.678Z,7.90
2023-02-16T10:34:02.569Z,9.10
2023-02-16T10:36:53.439Z,16.90
2023-02-16T10:39:52.169Z,9.20
2023-02-16T10:42:37.618Z,8.00
2023-02-16T10:45:18.128Z,10.60
2023-02-16T10:47:47.504Z,12.80
2023-02-16T10:50:21.550Z,7.70
2023-02-16T10:52:50.429Z,16.20
2023-02-16T10:55:18.797Z,12.70
2023-02-16T10:57:52.480Z,13.50
2023-02-16T11:00:24.726Z,9.00
2023-02-16T11:02:53.465Z,20.70
2023-02-16T11:05:31.363Z,10.80
2023-02-16T11:08:03.202Z,14.50
2023-02-16T11:10:39.120Z,7.40
2023-02-16T11:13:17.279Z,7.20
2023-02-16T11:15:46.865Z,7.20
2023-02-16T11:18:41.921Z,6.70
2023-02-16T11:21:10.822Z,4.90
2023-02-16T11:23:40.886Z,9.60
2023-02-16T11:26:10.444Z,8.00
2023-02-16T11:28:44.228Z,9.30
2023-02-16T11:31:17.112Z,11.60
2023-02-16T11:34:33.629Z,6.90
2023-02-16T11:37:04.823Z,9.50
2023-02-16T11:39:38.122Z,7.70
2023-02-16T11:42:09.262Z,5.40
2023-02-16T11:44:47.266Z,6.10
2023-02-16T11:47:29.009Z,6.00
2023-02-16T11:50:20.521Z,10.70
2023-02-16T11:52:51.037Z,8.20
2023-02-16T11:55:27.667Z,7.10
2023-02-16T11:57:57.290Z,9.00
2023-02-16T12:00:26.763Z,10.80
2023-02-16T12:03:20.144Z,9.80
2023-02-16T12:06:04.501Z,8.20
2023-02-16T12:08:37.769Z,10.20
2023-02-16T12:11:25.554Z,12.30
2023-02-16T12:14:22.590Z,10.40
2023-02-16T12:17:01.051Z,8.70
2023-02-16T12:19:36.967Z,16.80
2023-02-16T12:22:14.854Z,28.90
2023-02-16T12:25:02.123Z,18.50
2023-02-16T12:27:37.801Z,15.20
2023-02-16T12:30:12.346Z,18.50
2023-02-16T12:32:50.054Z,13.10
2023-02-16T12:35:33.972Z,14.50
2023-02-16T12:38:38.612Z,16.20
2023-02-16T12:44:00.499Z,16.90
2023-02-16T12:46:39.740Z,15.30
2023-02-16T12:49:11.395Z,16.70
2023-02-16T12:51:43.911Z,18.50
2023-02-16T12:54:19.493Z,12.60
2023-02-16T12:57:01.313Z,11.00
2023-02-16T12:59:33.685Z,13.10
2023-02-16T13:02:02.359Z,9.20
2023-02-16T13:04:47.839Z,17.00
2023-02-16T13:07:43.299Z,8.00
2023-02-16T13:10:30.732Z,14.20
2023-02-16T13:13:14.803Z,14.00
2023-02-16T13:16:00.292Z,5.90
2023-02-16T13:18:32.142Z,9.10
2023-02-16T13:21:04.617Z,8.90
2023-02-16T13:23:58.072Z,9.20
2023-02-16T13:26:36.773Z,9.70
2023-02-16T13:29:29.763Z,10.00
2023-02-16T13:32:22.942Z,8.20
2023-02-16T13:35:03.733Z,11.60
2023-02-16T13:37:51.042Z,10.70
2023-02-16T13:40:33.256Z,8.60
2023-02-16T13:43:14.218Z,11.50
2023-02-16T13:45:44.630Z,10.40
2023-02-16T13:48:22.401Z,9.40
2023-02-16T13:50:58.765Z,10.80
2023-02-16T13:53:27.278Z,13.90
2023-02-16T13:56:14.056Z,11.60
2023-02-16T13:58:42.421Z,10.60
2023-02-16T14:01:32.600Z,7.80
2023-02-16T14:04:02.075Z,14.60
2023-02-16T14:06:37.264Z,11.70
2023-02-16T14:09:14.790Z,8.20
2023-02-16T14:11:53.714Z,9.20
2023-02-16T14:14:33.993Z,11.30
2023-02-16T14:17:15.936Z,12.90
2023-02-16T14:20:15.988Z,6.30
2023-02-16T14:22:51.090Z,8.40
2023-02-16T14:25:22.957Z,13.30
2023-02-16T14:27:53.861Z,12.00
2023-02-16T14:30:53.727Z,13.00
2023-02-16T14:33:37.850Z,9.80
2023-02-16T14:36:14.084Z,11.20
2023-02-16T14:38:42.868Z,10.90
2023-02-16T14:41:24.157Z,10.00
2023-02-16T14:44:05.028Z,13.50
2023-02-16T14:47:01.366Z,14.40
2023-02-16T14:50:06.001Z,14.80
2023-02-16T14:52:56.833Z,15.50
2023-02-16T14:55:49.878Z,15.70
2023-02-16T14:58:24.006Z,11.20
2023-02-16T15:01:10.774Z,10.80
2023-02-16T15:03:48.490Z,17.10
2023-02-16T15:06:32.286Z,11.30
2023-02-16T15:09:03.722Z,10.00
2023-02-16T15:11:58.473Z,16.10
2023-02-16T15:14:27.315Z,16.50
2023-02-16T15:16:57.785Z,13.10
2023-02-16T15:19:30.315Z,18.30
2023-02-16T15:22:16.824Z,17.00
2023-02-16T15:25:05.003Z,18.10
2023-02-16T15:27:33.499Z,20.70
2023-02-16T15:30:15.880Z,16.90
2023-02-16T15:33:07.670Z,21.10
2023-02-16T15:35:38.240Z,18.10
2023-02-16T15:38:17.318Z,15.00
2023-02-16T15:40:46.091Z,13.30
2023-02-16T15:43:32.509Z,18.50
2023-02-16T15:46:03.225Z,24.00
2023-02-16T15:48:32.875Z,10.20
2023-02-16T15:51:15.805Z,12.50
2023-02-16T15:53:49.123Z,15.10
2023-02-16T15:56:29.184Z,10.80
2023-02-16T15:58:59.981Z,14.20
2023-02-16T16:01:33.420Z,13.00
2023-02-16T16:06:48.409Z,8.50
2023-02-16T16:09:28.603Z,12.10
2023-02-16T16:11:58.966Z,14.60
2023-02-16T16:14:27.900Z,12.30
2023-02-16T16:16:56.336Z,16.00
2023-02-16T16:19:35.942Z,12.00
2023-02-16T16:22:34.729Z,10.40
2023-02-16T16:25:04.379Z,13.90
2023-02-16T16:27:36.723Z,11.80
2023-02-16T16:30:31.826Z,9.00
2023-02-16T16:33:12.095Z,10.50
2023-02-16T16:35:48.757Z,9.70
2023-02-16T16:38:28.223Z,7.70
2023-02-16T16:41:01.926Z,7.30
2023-02-16T16:43:35.694Z,5.60
2023-02-16T16:46:17.736Z,8.70
2023-02-16T16:48:47.756Z,11.60
2023-02-16T16:51:27.896Z,6.90
2023-02-16T16:54:06.052Z,8.60
2023-02-16T16:56:37.353Z,10.10
2023-02-16T16:59:06.023Z,15.10
2023-02-16T17:01:35.026Z,12.30
2023-02-16T17:04:03.620Z,8.10
2023-02-16T17:06:32.334Z,15.20
2023-02-16T17:09:01.902Z,12.10
2023-02-16T17:11:37.387Z,11.70
2023-02-16T17:14:14.649Z,20.50
2023-02-16T17:16:44.648Z,18.90
2023-02-16T17:19:15.240Z,24.70
2023-02-16T17:21:43.649Z,10.60
2023-02-16T17:24:12.305Z,23.30
2023-02-16T17:26:42.660Z,28.80
2023-02-16T17:29:11.837Z,28.00
2023-02-16T17:31:40.793Z,19.90
2023-02-16T17:34:09.281Z,15.70
2023-02-16T17:36:38.964Z,16.30
2023-02-16T17:39:10.632Z,19.80
2023-02-16T17:41:39.711Z,28.10
2023-02-16T17:44:12.242Z,25.50
2023-02-16T17:46:42.154Z,27.30
2023-02-16T17:49:11.044Z,31.50
2023-02-16T17:51:40.761Z,28.50
2023-02-16T17:54:11.829Z,26.50
2023-02-16T17:56:41.815Z,33.10
2023-02-16T17:59:11.265Z,28.30
2023-02-16T18:01:40.025Z,30.30
2023-02-16T18:04:08.407Z,36.00
2023-02-16T18:06:37.444Z,26.50
2023-02-16T18:09:14.903Z,24.40
2023-02-16T18:11:43.254Z,23.00
2023-02-16T18:14:12.552Z,22.50
2023-02-16T18:16:40.985Z,21.00
2023-02-16T18:19:15.015Z,22.50
2023-02-16T18:21:45.353Z,24.30
2023-02-16T18:24:13.911Z,19.10
2023-02-16T18:26:42.413Z,32.00
2023-02-16T18:29:11.230Z,20.40
2023-02-16T18:31:42.625Z,24.10
2023-02-16T18:34:11.440Z,21.90
2023-02-16T18:36:40.069Z,19.40
2023-02-16T18:39:08.709Z,21.30
2023-02-16T18:41:37.710Z,21.50
2023-02-16T18:44:06.889Z,17.70
2023-02-16T18:46:35.714Z,18.00
2023-02-16T18:49:04.477Z,22.20
2023-02-16T18:51:33.771Z,23.20
2023-02-16T18:54:05.293Z,20.40
2023-02-16T18:56:36.707Z,28.10
2023-02-16T18:59:07.972Z,22.30
2023-02-16T19:01:37.691Z,20.80
2023-02-16T19:04:07.602Z,34.50
2023-02-16T19:06:36.536Z,29.70
2023-02-16T19:09:05.974Z,38.60
2023-02-16T19:11:35.937Z,38.30
2023-02-16T19:14:04.352Z,35.30
2023-02-16T19:16:33.800Z,37.60
2023-02-16T19:19:02.302Z,36.80
2023-02-16T19:21:31.024Z,31.50
2023-02-16T19:23:59.645Z,30.10
2023-02-16T19:26:28.134Z,27.10
2023-02-16T19:28:56.561Z,31.70
2023-02-16T19:31:26.768Z,32.20
2023-02-16T19:33:55.866Z,28.70
2023-02-16T19:36:24.723Z,25.80
2023-02-16T19:38:53.682Z,30.60
2023-02-16T19:41:24.270Z,34.60
2023-02-16T19:43:52.775Z,32.00
2023-02-16T19:46:21.374Z,34.90
2023-02-16T19:48:50.046Z,43.80
2023-02-16T19:51:18.673Z,44.70
2023-02-16T19:53:47.762Z,38.10
2023-02-16T19:56:18.240Z,43.50
2023-02-16T19:58:53.476Z,43.80
2023-02-16T20:01:24.377Z,39.80
2023-02-16T20:03:53.071Z,43.10
2023-02-16T20:06:31.917Z,38.50
2023-02-16T20:09:01.049Z,38.80
2023-02-16T20:11:29.860Z,42.80
2023-02-16T20:13:58.397Z,37.60
2023-02-16T20:16:27.238Z,35.90
2023-02-16T20:18:55.632Z,38.60
2023-02-16T20:21:25.306Z,36.30
2023-02-16T20:23:55.695Z,34.00
2023-02-16T20:26:30.591Z,27.60
2023-02-16T20:29:00.698Z,38.30
2023-02-16T20:31:39.525Z,33.80
2023-02-16T20:34:08.072Z,31.00
2023-02-16T20:36:37.385Z,34.80
2023-02-16T20:39:06.378Z,32.10
2023-02-16T20:41:34.984Z,31.20
2023-02-16T20:44:04.002Z,31.20
2023-02-16T20:46:32.641Z,31.80
2023-02-16T20:49:01.027Z,32.50
2023-02-16T20:51:29.896Z,28.20
2023-02-16T20:53:59.419Z,33.90
2023-02-16T20:56:29.898Z,39.30
2023-02-16T20:58:58.664Z,32.00
2023-02-16T21:01:39.137Z,25.20
2023-02-16T21:04:11.717Z,33.40
2023-02-16T21:06:40.379Z,28.40
2023-02-16T21:09:09.243Z,30.40
2023-02-16T21:11:41.070Z,32.90
2023-02-16T21:14:10.886Z,32.40
2023-02-16T21:16:43.182Z,26.90
2023-02-16T21:19:22.233Z,31.30
2023-02-16T21:21:52.209Z,35.20
2023-02-16T21:24:20.736Z,29.40
2023-02-16T21:26:49.091Z,31.70
2023-02-16T21:29:17.734Z,31.00
2023-02-16T21:31:46.365Z,31.20
2023-02-16T21:34:14.920Z,29.40
2023-02-16T21:36:44.562Z,37.30
2023-02-16T21:39:13.310Z,35.80
2023-02-16T21:41:41.884Z,31.30
2023-02-16T21:44:14.689Z,29.60
2023-02-16T21:46:44.502Z,31.80
2023-02-16T21:49:17.731Z,31.10
2023-02-16T21:51:47.055Z,29.70
2023-02-16T21:54:39.249Z,25.60
2023-02-16T21:57:07.635Z,29.20
2023-02-16T21:59:36.001Z,25.90
2023-02-16T22:02:05.154Z,32.40
2023-02-16T22:04:35.347Z,28.80
2023-02-16T22:07:03.828Z,32.60
2023-02-16T22:09:33.781Z,27.60
2023-02-16T22:12:02.201Z,26.10
2023-02-16T22:14:32.110Z,22.50
2023-02-16T22:17:04.561Z,21.10
2023-02-16T22:19:33.742Z,24.90
2023-02-16T22:22:02.158Z,24.70
2023-02-16T22:24:30.642Z,22.90
2023-02-16T22:26:58.924Z,25.50
2023-02-16T22:29:27.639Z,22.90
2023-02-16T22:31:56.091Z,22.60
2023-02-16T22:34:24.654Z,24.20
2023-02-16T22:36:53.086Z,20.10
2023-02-16T22:39:21.500Z,29.00
2023-02-16T22:41:51.067Z,21.10
2023-02-16T22:44:19.511Z,23.80
2023-02-16T22:46:48.247Z,19.00
2023-02-16T22:49:16.656Z,24.20
2023-02-16T22:51:46.197Z,23.60
2023-02-16T22:54:17.200Z,18.00
2023-02-16T22:56:45.784Z,21.60
2023-02-16T22:59:14.096Z,19.70
2023-02-16T23:01:42.489Z,16.80
2023-02-16T23:04:16.210Z,17.80
2023-02-16T23:06:45.449Z,19.20
2023-02-16T23:09:16.792Z,19.40
2023-02-16T23:11:45.769Z,20.00
2023-02-16T23:14:17.142Z,16.70
2023-02-16T23:16:46.502Z,22.20
2023-02-16T23:19:18.794Z,17.70
2023-02-16T23:21:47.784Z,17.00
2023-02-16T23:24:18.103Z,15.30
2023-02-16T23:26:46.782Z,12.60
2023-02-16T23:29:15.819Z,22.40
2023-02-16T23:31:44.846Z,11.80
2023-02-16T23:34:13.310Z,17.40
2023-02-16T23:36:45.367Z,18.80
2023-02-16T23:39:15.635Z,15.50
2023-02-16T23:41:44.057Z,14.30
2023-02-16T23:44:13.250Z,19.40
2023-02-16T23:46:41.634Z,19.20
2023-02-16T23:49:10.986Z,14.50
2023-02-16T23:51:39.671Z,13.40
2023-02-16T23:54:11.116Z,21.10
2023-02-16T23:56:39.781Z,19.20
2023-02-16T23:59:08.464Z,12.50
